Time;durP1;ratioP1;P1;durP2;ratioP2;P2;SDS_P1;SDS_P2;PMS_P1;PMS_P2;Temp;Humidity;BMP_temperature;BMP_pressure;BME280_temperature;BME280_humidity;BME280_pressure;Samples;Min_cycle;Max_cycle;Signal;HPM_P1;HPM_P2
2023/04/02 00:00:33;;;;;;;0.50;0.45;;;19.00;61.20;;;;;;5034252;28;20442;-62
2023/04/02 00:03:03;;;;;;;0.50;0.45;;;19.00;61.20;;;;;;5035758;28;20431;-62
2023/04/02 00:05:51;;;;;;;0.77;0.60;;;19.00;61.20;;;;;;5036368;28;20038;-62
2023/04/02 00:08:23;;;;;;;0.52;0.40;;;19.00;61.20;;;;;;5022688;28;20067;-62
2023/04/02 00:11:08;;;;;;;0.70;0.55;;;19.00;61.20;;;;;;5033292;28;20052;-61
2023/04/02 00:13:45;;;;;;;0.85;0.40;;;19.00;61.20;;;;;;5030444;28;20056;-62
2023/04/02 00:16:13;;;;;;;0.32;0.32;;;19.00;61.20;;;;;;5035666;28;20052;-63
2023/04/02 00:18:47;;;;;;;0.57;0.40;;;19.00;61.20;;;;;;5036573;28;20029;-61
2023/04/02 00:21:17;;;;;;;0.63;0.60;;;19.00;61.20;;;;;;5037137;28;20072;-61
2023/04/02 00:23:43;;;;;;;0.60;0.30;;;19.00;61.20;;;;;;5036592;28;20120;-62
2023/04/02 00:26:39;;;;;;;0.43;0.30;;;19.00;61.20;;;;;;5039876;28;20029;-61
2023/04/02 00:29:06;;;;;;;0.98;0.43;;;19.00;61.10;;;;;;5031198;28;20559;-59
2023/04/02 00:31:33;;;;;;;0.90;0.52;;;19.00;61.10;;;;;;5033141;28;20040;-61
2023/04/02 00:34:01;;;;;;;0.55;0.40;;;19.00;61.10;;;;;;5033319;28;20492;-62
2023/04/02 00:36:32;;;;;;;0.55;0.55;;;19.00;61.20;;;;;;5021035;28;20432;-59
2023/04/02 00:39:00;;;;;;;0.65;0.50;;;19.00;61.10;;;;;;5031785;28;20477;-59
2023/04/02 00:41:29;;;;;;;0.30;0.22;;;19.00;61.10;;;;;;5033045;28;20029;-62
2023/04/02 00:43:56;;;;;;;0.60;0.40;;;19.00;61.10;;;;;;5032662;28;20425;-62
2023/04/02 00:46:28;;;;;;;0.40;0.30;;;19.00;61.10;;;;;;5033499;28;20048;-62
2023/04/02 00:49:09;;;;;;;0.43;0.30;;;18.90;61.00;;;;;;5036181;28;20503;-62
2023/04/02 00:51:40;;;;;;;0.35;0.35;;;19.00;61.10;;;;;;5036143;28;22670;-62
2023/04/02 00:54:14;;;;;;;0.40;0.40;;;19.00;61.20;;;;;;5037035;28;20492;-62
2023/04/02 00:56:43;;;;;;;0.40;0.38;;;19.00;61.10;;;;;;5032147;28;20105;-62
2023/04/02 00:59:21;;;;;;;0.40;0.40;;;18.90;61.00;;;;;;5035106;28;20075;-62
2023/04/02 01:01:53;;;;;;;0.35;0.30;;;19.00;61.00;;;;;;5037332;28;20040;-61
2023/04/02 01:04:33;;;;;;;0.50;0.40;;;19.00;61.00;;;;;;5038147;28;20049;-61
2023/04/02 01:07:03;;;;;;;0.20;0.20;;;19.00;61.00;;;;;;5033743;28;20071;-62
2023/04/02 01:10:08;;;;;;;0.30;0.30;;;18.90;61.00;;;;;;5029918;28;20033;-61
2023/04/02 01:13:01;;;;;;;0.38;0.38;;;19.00;61.10;;;;;;5030418;28;20021;-62
2023/04/02 01:15:50;;;;;;;0.38;0.30;;;19.00;61.00;;;;;;5033710;28;20021;-56
2023/04/02 01:18:36;;;;;;;0.30;0.30;;;18.90;61.00;;;;;;5036428;28;20288;-62
2023/04/02 01:21:06;;;;;;;0.38;0.38;;;18.90;61.00;;;;;;5034455;28;20500;-62
2023/04/02 01:24:07;;;;;;;0.50;0.30;;;19.00;61.00;;;;;;5035567;28;20040;-62
2023/04/02 01:26:53;;;;;;;0.40;0.40;;;18.90;61.00;;;;;;5032792;28;20029;-62
2023/04/02 01:29:30;;;;;;;0.63;0.60;;;19.00;61.00;;;;;;5028874;28;20040;-63
2023/04/02 01:32:04;;;;;;;0.43;0.38;;;19.00;61.00;;;;;;5030993;28;20037;-60
2023/04/02 01:34:31;;;;;;;0.85;0.47;;;19.00;61.00;;;;;;5026750;28;20052;-62
2023/04/02 01:37:02;;;;;;;1.38;0.30;;;18.90;61.00;;;;;;5031772;28;20029;-61
2023/04/02 01:40:11;;;;;;;0.57;0.45;;;18.90;60.90;;;;;;5033471;28;20295;-62
2023/04/02 01:43:30;;;;;;;0.40;0.30;;;19.00;61.00;;;;;;5011879;28;20056;-55
2023/04/02 01:45:57;;;;;;;0.35;0.35;;;18.90;60.90;;;;;;5025700;28;20044;-58
2023/04/02 01:48:28;;;;;;;0.30;0.30;;;18.90;60.90;;;;;;5036595;28;20112;-58
2023/04/02 01:50:57;;;;;;;0.63;0.50;;;19.00;61.00;;;;;;5034949;28;20128;-62
2023/04/02 01:53:26;;;;;;;0.55;0.40;;;18.90;60.80;;;;;;5035964;28;20080;-62
2023/04/02 01:55:58;;;;;;;0.30;0.30;;;18.90;60.80;;;;;;5032674;28;20456;-61
2023/04/02 01:58:30;;;;;;;0.30;0.20;;;19.00;60.90;;;;;;5031109;28;20041;-62
2023/04/02 02:01:05;;;;;;;0.30;0.30;;;18.90;60.80;;;;;;5029454;28;20032;-59
2023/04/02 02:03:32;;;;;;;0.30;0.30;;;18.90;60.80;;;;;;5026702;28;20044;-62
2023/04/02 02:05:59;;;;;;;0.20;0.20;;;18.90;60.80;;;;;;5014578;28;20488;-62
2023/04/02 02:08:43;;;;;;;0.30;0.30;;;18.90;60.80;;;;;;5013972;28;20099;-61
2023/04/02 02:11:22;;;;;;;0.43;0.30;;;18.90;60.80;;;;;;5012657;28;20041;-62
2023/04/02 02:13:57;;;;;;;0.35;0.35;;;18.90;60.90;;;;;;5012496;28;20088;-61
2023/04/02 02:16:25;;;;;;;0.20;0.20;;;18.90;60.90;;;;;;5033366;28;20040;-55
2023/04/02 02:18:54;;;;;;;0.73;0.30;;;18.90;60.90;;;;;;5037246;28;20079;-62
2023/04/02 02:21:38;;;;;;;0.68;0.30;;;18.90;60.90;;;;;;5035353;28;20029;-62
2023/04/02 02:24:06;;;;;;;0.30;0.30;;;18.90;60.90;;;;;;5031860;28;20029;-57
2023/04/02 02:26:34;;;;;;;0.20;0.20;;;18.90;60.90;;;;;;5032654;28;20044;-61
2023/04/02 02:29:04;;;;;;;0.22;0.20;;;18.90;60.90;;;;;;5032968;28;20321;-61
2023/04/02 02:31:33;;;;;;;0.30;0.30;;;18.90;60.90;;;;;;5027934;28;20029;-62
2023/04/02 02:34:06;;;;;;;0.20;0.20;;;18.90;60.90;;;;;;5034897;28;20021;-63
2023/04/02 02:36:57;;;;;;;0.30;0.30;;;18.90;61.00;;;;;;5032159;28;20025;-61
2023/04/02 02:39:35;;;;;;;0.40;0.40;;;18.90;61.00;;;;;;5027356;28;20475;-62
2023/04/02 02:42:21;;;;;;;0.95;0.30;;;18.90;60.90;;;;;;5032260;28;20025;-62
2023/04/02 02:44:49;;;;;;;0.47;0.30;;;18.90;60.90;;;;;;5024792;28;20415;-57
2023/04/02 02:47:17;;;;;;;0.40;0.30;;;18.80;60.90;;;;;;5035324;28;20087;-61
2023/04/02 02:49:48;;;;;;;0.52;0.40;;;18.80;60.80;;;;;;5035828;28;20109;-55
2023/04/02 02:52:35;;;;;;;0.40;0.30;;;18.80;60.80;;;;;;5033026;28;20037;-61
2023/04/02 02:55:17;;;;;;;0.40;0.40;;;18.80;60.90;;;;;;5025326;28;20033;-62
2023/04/02 02:57:55;;;;;;;0.52;0.32;;;18.80;60.90;;;;;;5030782;28;20029;-62
2023/04/02 03:00:23;;;;;;;0.40;0.40;;;18.80;60.90;;;;;;5015077;28;20079;-60
2023/04/02 03:02:51;;;;;;;0.40;0.40;;;18.80;60.80;;;;;;5016577;28;20057;-61
2023/04/02 03:05:22;;;;;;;0.20;0.20;;;18.80;60.80;;;;;;5012181;28;20450;-63
2023/04/02 03:07:54;;;;;;;0.32;0.28;;;18.80;61.40;;;;;;5009150;28;20026;-62
2023/04/02 03:10:31;;;;;;;0.30;0.30;;;18.80;60.70;;;;;;5016441;28;20035;-62
2023/04/02 03:13:11;;;;;;;0.47;0.30;;;18.80;60.70;;;;;;5035191;28;20462;-61
2023/04/02 03:15:50;;;;;;;0.30;0.30;;;18.80;60.70;;;;;;5036405;28;20041;-61
2023/04/02 03:18:37;;;;;;;0.30;0.30;;;18.80;60.70;;;;;;5019504;28;20488;-61
2023/04/02 03:21:29;;;;;;;0.32;0.30;;;18.90;60.80;;;;;;5037776;28;20116;-62
2023/04/02 03:23:59;;;;;;;0.30;0.25;;;18.80;60.70;;;;;;5032677;28;20543;-63
2023/04/02 03:26:38;;;;;;;0.25;0.20;;;18.80;60.60;;;;;;5032900;28;20528;-61
2023/04/02 03:29:19;;;;;;;0.40;0.30;;;18.90;60.70;;;;;;5036751;28;20099;-59
2023/04/02 03:32:09;;;;;;;0.30;0.30;;;18.90;60.60;;;;;;5016368;28;20921;-62
2023/04/02 03:34:41;;;;;;;0.40;0.40;;;18.90;60.50;;;;;;5012871;28;20038;-59
2023/04/02 03:37:17;;;;;;;0.30;0.30;;;18.90;61.00;;;;;;5017966;28;20032;-62
2023/04/02 03:39:54;;;;;;;0.55;0.40;;;19.00;60.40;;;;;;5036642;28;20052;-62
2023/04/02 03:42:26;;;;;;;0.38;0.38;;;19.00;60.20;;;;;;5035543;28;20503;-62
2023/04/02 03:44:58;;;;;;;0.30;0.30;;;19.00;60.10;;;;;;5038615;28;20034;-62
2023/04/02 03:47:36;;;;;;;0.30;0.30;;;19.10;59.90;;;;;;5036460;28;20333;-56
2023/04/02 03:50:30;;;;;;;0.30;0.28;;;19.10;59.80;;;;;;5037937;28;20041;-56
2023/04/02 03:52:57;;;;;;;0.52;0.35;;;19.10;59.60;;;;;;5033829;28;20088;-61
2023/04/02 03:55:34;;;;;;;0.40;0.40;;;19.20;59.60;;;;;;5033312;28;20079;-62
2023/04/02 03:58:05;;;;;;;0.50;0.40;;;19.20;59.50;;;;;;5035156;28;20025;-62
2023/04/02 04:00:51;;;;;;;0.28;0.28;;;19.30;59.40;;;;;;5035221;28;20040;-62
2023/04/02 04:03:22;;;;;;;0.20;0.20;;;19.20;59.30;;;;;;5034958;28;20464;-60
2023/04/02 04:05:53;;;;;;;0.38;0.30;;;19.30;59.30;;;;;;5014538;28;20512;-58
2023/04/02 04:08:25;;;;;;;0.45;0.38;;;19.30;59.30;;;;;;5029058;28;20041;-62
2023/04/02 04:10:54;;;;;;;0.30;0.30;;;19.30;59.20;;;;;;5042765;28;20035;-58
2023/04/02 04:13:35;;;;;;;0.60;0.30;;;19.30;59.10;;;;;;5036107;28;20025;-61
2023/04/02 04:16:08;;;;;;;0.25;0.25;;;19.30;59.00;;;;;;5017087;28;20029;-59
2023/04/02 04:18:43;;;;;;;0.40;0.40;;;19.30;58.90;;;;;;5014799;28;20465;-62
2023/04/02 04:21:28;;;;;;;;;;;19.40;59.00;;;;;;5013907;28;20048;-59
2023/04/02 04:23:54;;;;;;;0.50;0.50;;;19.40;58.90;;;;;;5015312;28;20010;-62
2023/04/02 04:27:08;;;;;;;0.40;0.40;;;19.40;58.80;;;;;;5014287;28;20096;-62
2023/04/02 04:30:04;;;;;;;0.50;0.50;;;19.40;58.80;;;;;;5023323;28;20037;-62
2023/04/02 04:32:37;;;;;;;0.40;0.40;;;19.40;58.70;;;;;;5030235;28;20029;-62
2023/04/02 04:35:26;;;;;;;0.35;0.30;;;19.40;58.70;;;;;;5066092;28;20116;-62
2023/04/02 04:38:26;;;;;;;0.40;0.30;;;19.50;58.70;;;;;;5025752;28;20029;-62
2023/04/02 04:40:55;;;;;;;0.47;0.40;;;19.50;58.70;;;;;;5036707;28;20040;-61
2023/04/02 04:43:40;;;;;;;0.30;0.20;;;19.50;58.80;;;;;;5036369;28;20025;-66
2023/04/02 04:46:12;;;;;;;0.30;0.30;;;19.50;58.70;;;;;;5039639;28;20108;-58
2023/04/02 04:49:11;;;;;;;0.40;0.40;;;19.50;58.70;;;;;;5032651;28;20161;-61
2023/04/02 04:52:03;;;;;;;0.30;0.25;;;19.40;58.70;;;;;;5036054;28;20387;-62
2023/04/02 04:54:28;;;;;;;0.35;0.30;;;19.50;58.80;;;;;;5030123;28;20032;-57
2023/04/02 04:57:02;;;;;;;0.50;0.43;;;19.50;58.70;;;;;;5033632;28;20038;-60
2023/04/02 04:59:41;;;;;;;0.75;0.40;;;19.40;58.70;;;;;;5030805;28;20029;-58
2023/04/02 05:02:15;;;;;;;0.80;0.55;;;19.40;58.70;;;;;;5033899;28;20040;-63
2023/04/02 05:04:42;;;;;;;0.30;0.30;;;19.40;58.80;;;;;;5030830;28;20036;-62
2023/04/02 05:07:26;;;;;;;0.30;0.30;;;19.40;58.80;;;;;;5033823;28;20104;-59
2023/04/02 05:10:06;;;;;;;0.80;0.70;;;19.40;58.80;;;;;;5039928;28;20041;-61
2023/04/02 05:12:55;;;;;;;0.45;0.40;;;19.40;58.80;;;;;;5031411;28;20075;-61
2023/04/02 05:15:34;;;;;;;0.60;0.50;;;19.40;59.50;;;;;;5024698;28;20107;-61
2023/04/02 05:18:27;;;;;;;0.35;0.32;;;19.40;58.90;;;;;;5026240;28;20030;-52
2023/04/02 05:21:12;;;;;;;0.40;0.40;;;19.40;58.80;;;;;;5026736;28;20037;-62
2023/04/02 05:23:52;;;;;;;0.50;0.50;;;19.40;58.80;;;;;;5034097;28;20036;-62
2023/04/02 05:26:27;;;;;;;0.40;0.40;;;19.40;58.70;;;;;;5038659;28;20833;-62
2023/04/02 05:28:59;;;;;;;0.40;0.40;;;19.40;58.90;;;;;;5030325;28;20416;-63
2023/04/02 05:31:38;;;;;;;1.55;0.40;;;19.40;58.80;;;;;;5028391;28;20025;-62
2023/04/02 05:34:04;;;;;;;0.45;0.43;;;19.40;58.80;;;;;;5031288;28;20136;-58
2023/04/02 05:36:31;;;;;;;0.57;0.43;;;19.40;58.70;;;;;;5022366;28;20041;-62
2023/04/02 05:38:58;;;;;;;0.50;0.45;;;19.40;58.70;;;;;;5036639;28;20061;-55
2023/04/02 05:41:41;;;;;;;0.38;0.38;;;19.40;58.80;;;;;;5037281;28;20403;-61
2023/04/02 05:44:27;;;;;;;0.40;0.40;;;19.40;58.80;;;;;;5037851;28;20033;-62
2023/04/02 05:46:57;;;;;;;;;;;19.40;58.80;;;;;;5034336;28;20028;-62
2023/04/02 05:49:24;;;;;;;0.60;0.40;;;19.40;58.90;;;;;;5031280;28;19913;-62
2023/04/02 05:51:55;;;;;;;0.47;0.40;;;19.40;58.80;;;;;;5034209;28;20038;-62
2023/04/02 05:54:49;;;;;;;0.40;0.40;;;19.40;58.80;;;;;;5026789;28;20100;-62
2023/04/02 05:57:20;;;;;;;0.70;0.45;;;19.30;58.70;;;;;;5034883;28;20120;-62
2023/04/02 05:59:53;;;;;;;0.43;0.40;;;19.40;58.80;;;;;;5017936;28;20274;-57
2023/04/02 06:02:41;;;;;;;0.40;0.30;;;19.30;58.70;;;;;;5009101;28;20029;-61
2023/04/02 06:05:20;;;;;;;0.60;0.40;;;19.30;58.80;;;;;;5033523;28;20527;-62
2023/04/02 06:07:52;;;;;;;0.40;0.40;;;19.40;58.80;;;;;;5035686;28;20549;-62
2023/04/02 06:10:24;;;;;;;0.30;0.30;;;19.30;58.70;;;;;;5037753;28;20127;-62
2023/04/02 06:13:04;;;;;;;0.70;0.50;;;19.30;58.60;;;;;;5038323;28;20040;-62
2023/04/02 06:15:31;;;;;;;0.47;0.40;;;19.30;58.80;;;;;;5033794;28;20036;-60
2023/04/02 06:18:07;;;;;;;0.50;0.45;;;19.30;58.70;;;;;;5033171;28;20167;-62
2023/04/02 06:20:32;;;;;;;0.70;0.55;;;19.30;58.70;;;;;;5032843;28;20091;-58
2023/04/02 06:23:10;;;;;;;0.50;0.40;;;19.30;58.70;;;;;;5035712;28;20438;-53
2023/04/02 06:25:42;;;;;;;0.60;0.50;;;19.30;58.60;;;;;;5027777;28;20047;-58
2023/04/02 06:28:15;;;;;;;0.55;0.50;;;19.30;58.50;;;;;;5029772;28;20112;-58
2023/04/02 06:30:43;;;;;;;0.50;0.40;;;19.30;58.60;;;;;;5031154;28;20025;-61
2023/04/02 06:33:11;;;;;;;0.50;0.43;;;19.30;58.70;;;;;;5032281;28;20029;-62
2023/04/02 06:35:41;;;;;;;0.68;0.50;;;19.30;58.70;;;;;;5030769;28;20135;-63
2023/04/02 06:38:18;;;;;;;0.40;0.40;;;19.30;58.70;;;;;;5035969;28;20025;-57
2023/04/02 06:40:57;;;;;;;0.50;0.50;;;19.30;58.70;;;;;;5034799;28;20511;-60
2023/04/02 06:43:39;;;;;;;0.50;0.50;;;19.30;58.80;;;;;;5030988;28;20116;-63
2023/04/02 06:46:12;;;;;;;0.40;0.40;;;19.20;58.70;;;;;;5032762;28;20352;-62
2023/04/02 06:48:40;;;;;;;0.65;0.55;;;19.30;58.80;;;;;;5032236;28;20047;-62
2023/04/02 06:51:11;;;;;;;0.55;0.50;;;19.20;58.80;;;;;;5013641;28;20549;-62
2023/04/02 06:53:41;;;;;;;0.95;0.50;;;19.30;58.90;;;;;;5009027;28;20307;-62
2023/04/02 06:56:43;;;;;;;0.40;0.40;;;19.30;58.80;;;;;;5021371;28;20136;-63
2023/04/02 06:59:11;;;;;;;0.40;0.40;;;19.30;58.80;;;;;;5034542;28;20429;-58
2023/04/02 07:01:58;;;;;;;0.50;0.50;;;19.30;58.70;;;;;;5034264;28;20041;-62
2023/04/02 07:04:24;;;;;;;0.47;0.47;;;19.30;58.60;;;;;;5038918;28;20044;-62
2023/04/02 07:06:50;;;;;;;0.82;0.52;;;19.30;58.70;;;;;;5039562;28;20029;-62
2023/04/02 07:09:16;;;;;;;0.57;0.57;;;19.40;58.70;;;;;;5041147;28;20219;-62
2023/04/02 07:11:41;;;;;;;0.68;0.60;;;19.40;58.70;;;;;;5039496;28;20033;-62
2023/04/02 07:14:11;;;;;;;0.50;0.50;;;19.50;58.70;;;;;;5038785;28;20112;-58
2023/04/02 07:16:36;;;;;;;0.70;0.70;;;19.40;58.50;;;;;;5033232;28;20026;-62
2023/04/02 07:19:03;;;;;;;0.70;0.70;;;19.50;58.50;;;;;;5035988;28;20514;-58
2023/04/02 07:21:29;;;;;;;0.77;0.40;;;19.50;58.40;;;;;;5037777;28;20038;-62
2023/04/02 07:23:55;;;;;;;0.85;0.73;;;19.50;58.50;;;;;;5035102;28;20035;-63
2023/04/02 07:26:24;;;;;;;0.60;0.60;;;19.40;58.40;;;;;;5031691;28;20033;-62
2023/04/02 07:28:50;;;;;;;0.75;0.75;;;19.50;58.90;;;;;;5012314;28;20559;-62
2023/04/02 07:31:22;;;;;;;1.00;0.88;;;19.50;58.50;;;;;;5013241;28;20037;-62
2023/04/02 07:33:47;;;;;;;0.98;0.98;;;19.50;58.40;;;;;;5023555;28;20030;-62
2023/04/02 07:36:19;;;;;;;0.60;0.60;;;19.50;58.40;;;;;;5037730;28;20385;-63
2023/04/02 07:38:45;;;;;;;0.50;0.50;;;19.50;58.40;;;;;;5038293;28;20037;-58
2023/04/02 07:41:10;;;;;;;1.13;0.77;;;19.50;58.30;;;;;;5039664;28;20044;-62
2023/04/02 07:43:36;;;;;;;0.52;0.45;;;19.50;58.30;;;;;;5036001;28;20408;-57
2023/04/02 07:46:03;;;;;;;0.88;0.80;;;19.60;58.40;;;;;;5033474;28;20026;-61
2023/04/02 07:48:29;;;;;;;0.60;0.60;;;19.60;58.40;;;;;;5037374;28;20125;-62
2023/04/02 07:50:54;;;;;;;0.65;0.65;;;19.60;58.30;;;;;;5035492;28;20478;-62
2023/04/02 07:53:38;;;;;;;0.57;0.50;;;19.60;58.30;;;;;;5035322;28;20079;-61
2023/04/02 07:56:04;;;;;;;0.60;0.60;;;19.60;58.30;;;;;;5032334;28;20036;-58
2023/04/02 07:58:31;;;;;;;0.57;0.50;;;19.60;58.30;;;;;;5035556;28;20028;-62
2023/04/02 08:00:58;;;;;;;0.45;0.43;;;19.60;58.30;;;;;;5036895;28;20033;-61
2023/04/02 08:03:23;;;;;;;0.90;0.60;;;19.60;58.20;;;;;;5033895;28;20033;-63
2023/04/02 08:05:54;;;;;;;0.70;0.57;;;19.60;58.30;;;;;;5033929;28;20393;-62
2023/04/02 08:08:21;;;;;;;0.82;0.70;;;19.60;58.20;;;;;;5038774;28;20132;-63
2023/04/02 08:10:46;;;;;;;0.75;0.75;;;19.60;58.20;;;;;;5036979;28;20048;-58
2023/04/02 08:13:13;;;;;;;0.70;0.70;;;19.60;58.20;;;;;;5037471;28;20029;-59
2023/04/02 08:15:38;;;;;;;0.73;0.60;;;19.60;58.10;;;;;;5031696;28;20065;-62
2023/04/02 08:18:04;;;;;;;0.68;0.68;;;19.60;58.20;;;;;;5031528;28;20053;-61
2023/04/02 08:20:30;;;;;;;1.13;1.02;;;19.60;58.20;;;;;;5036513;28;20169;-62
2023/04/02 08:22:57;;;;;;;0.93;0.80;;;19.60;58.10;;;;;;5033220;28;20038;-62
2023/04/02 08:25:22;;;;;;;0.80;0.80;;;19.60;58.00;;;;;;5031841;28;20477;-63
2023/04/02 08:27:48;;;;;;;0.73;0.70;;;19.60;58.00;;;;;;5034015;28;20131;-59
2023/04/02 08:30:15;;;;;;;1.45;1.00;;;19.70;58.10;;;;;;5032418;28;20135;-61
2023/04/02 08:32:40;;;;;;;0.55;0.55;;;19.70;58.10;;;;;;5027318;28;20044;-62
2023/04/02 08:35:08;;;;;;;0.77;0.70;;;19.70;58.00;;;;;;5037331;28;20413;-54
2023/04/02 08:37:34;;;;;;;0.65;0.60;;;19.70;58.10;;;;;;5037950;28;20033;-62
2023/04/02 08:40:00;;;;;;;1.20;0.80;;;19.80;58.10;;;;;;5038565;28;20037;-62
2023/04/02 08:42:55;;;;;;;0.80;0.80;;;19.80;58.10;;;;;;5035031;28;20094;-62
2023/04/02 08:45:46;;;;;;;1.00;0.90;;;19.80;58.10;;;;;;5032230;28;20034;-61
2023/04/02 08:48:12;;;;;;;1.65;0.98;;;19.80;58.00;;;;;;5033126;28;20022;-61
2023/04/02 08:50:41;;;;;;;0.95;0.80;;;19.80;58.00;;;;;;5031476;28;20204;-58
2023/04/02 08:53:17;;;;;;;0.93;0.80;;;19.80;57.90;;;;;;5030487;28;20095;-62
2023/04/02 08:56:04;;;;;;;0.80;0.80;;;19.80;57.90;;;;;;5029917;28;20042;-62
2023/04/02 08:58:41;;;;;;;1.33;1.05;;;19.80;57.90;;;;;;5036821;28;20039;-62
2023/04/02 09:01:15;;;;;;;2.30;1.02;;;19.80;57.80;;;;;;5034621;28;20041;-62
2023/04/02 09:03:45;;;;;;;1.30;1.05;;;19.80;57.90;;;;;;5033614;28;20040;-62
2023/04/02 09:06:16;;;;;;;1.00;0.90;;;19.80;57.90;;;;;;5028334;28;20038;-62
2023/04/02 09:08:43;;;;;;;0.98;0.80;;;19.80;57.80;;;;;;5013342;28;20087;-61
2023/04/02 09:11:26;;;;;;;1.27;1.00;;;19.80;58.30;;;;;;5022405;28;20037;-61
2023/04/02 09:13:55;;;;;;;1.33;0.95;;;19.80;57.70;;;;;;5024387;28;20086;-63
2023/04/02 09:16:33;;;;;;;0.85;0.80;;;19.80;57.70;;;;;;5026158;28;20500;-62
2023/04/02 09:19:00;;;;;;;0.95;0.63;;;19.80;57.70;;;;;;5023925;28;20040;-63
2023/04/02 09:21:33;;;;;;;0.95;0.90;;;19.80;57.80;;;;;;5032267;28;20030;-63
2023/04/02 09:23:59;;;;;;;0.82;0.82;;;19.80;57.70;;;;;;5030199;28;20542;-62
2023/04/02 09:26:27;;;;;;;1.42;0.73;;;19.80;57.70;;;;;;5020018;28;20041;-61
2023/04/02 09:29:01;;;;;;;1.02;0.93;;;19.80;57.70;;;;;;5011054;28;20055;-62
2023/04/02 09:31:35;;;;;;;1.00;0.90;;;19.80;57.70;;;;;;5012672;28;20022;-63
2023/04/02 09:34:01;;;;;;;1.48;0.80;;;19.80;57.60;;;;;;5018470;28;20057;-62
2023/04/02 09:36:32;;;;;;;1.02;0.93;;;19.80;57.60;;;;;;5016550;28;20053;-62
2023/04/02 09:39:05;;;;;;;1.95;1.17;;;19.80;57.60;;;;;;5015705;28;20571;-62
2023/04/02 09:41:31;;;;;;;1.40;1.00;;;19.80;57.50;;;;;;5013485;28;20159;-62
2023/04/02 09:44:19;;;;;;;1.40;0.98;;;19.80;57.40;;;;;;5009220;28;20577;-59
2023/04/02 09:46:51;;;;;;;1.00;0.90;;;19.80;57.70;;;;;;5010230;28;20041;-62
2023/04/02 09:49:20;;;;;;;1.00;0.90;;;19.80;57.50;;;;;;5012158;28;20041;-61
2023/04/02 09:52:04;;;;;;;1.35;0.93;;;19.80;57.50;;;;;;5012288;28;20129;-57
2023/04/02 09:54:30;;;;;;;2.47;1.15;;;19.80;57.60;;;;;;5011538;28;20045;-61
2023/04/02 09:57:03;;;;;;;0.95;0.90;;;19.90;57.70;;;;;;5018945;28;20036;-59
2023/04/02 09:59:29;;;;;;;0.75;0.70;;;19.80;57.60;;;;;;5031089;28;20038;-63
2023/04/02 10:01:54;;;;;;;0.88;0.80;;;19.90;57.60;;;;;;5033397;28;20028;-56
2023/04/02 10:04:43;;;;;;;0.60;0.60;;;19.90;57.50;;;;;;5022485;28;20522;-57
2023/04/02 10:07:34;;;;;;;0.95;0.63;;;19.90;57.50;;;;;;5034816;28;20412;-62
2023/04/02 10:10:20;;;;;;;1.40;1.10;;;19.90;57.50;;;;;;5038429;28;20043;-57
2023/04/02 10:13:03;;;;;;;;;;;19.90;57.40;;;;;;5035433;28;20033;-62
2023/04/02 10:15:55;;;;;;;0.70;0.70;;;19.90;57.50;;;;;;5035582;28;19913;-62
2023/04/02 10:18:33;;;;;;;1.73;1.00;;;19.80;57.30;;;;;;5033904;28;20036;-62
2023/04/02 10:21:02;;;;;;;0.85;0.80;;;19.80;57.30;;;;;;5029634;28;20487;-61
2023/04/02 10:23:29;;;;;;;1.02;0.90;;;19.80;57.20;;;;;;5029480;28;20033;-62
2023/04/02 10:26:02;;;;;;;1.10;1.00;;;19.80;57.20;;;;;;5033239;28;20494;-63
2023/04/02 10:29:07;;;;;;;0.80;0.73;;;19.80;57.30;;;;;;5035692;28;20244;-63
2023/04/02 10:31:51;;;;;;;1.55;1.40;;;19.80;57.20;;;;;;5029691;28;20128;-62
2023/04/02 10:34:26;;;;;;;1.25;0.98;;;19.80;57.00;;;;;;5038672;28;20042;-63
2023/04/02 10:36:53;;;;;;;;;;;19.80;57.20;;;;;;5039782;28;20052;-63
2023/04/02 10:39:34;;;;;;;1.08;0.98;;;19.80;57.20;;;;;;5037550;28;20011;-63
2023/04/02 10:42:18;;;;;;;0.95;0.90;;;19.70;57.10;;;;;;5036476;28;20453;-63
2023/04/02 10:45:11;;;;;;;1.20;0.88;;;19.70;57.10;;;;;;5033882;28;20035;-63
2023/04/02 10:48:18;;;;;;;1.45;1.10;;;19.70;56.90;;;;;;5031046;28;20061;-63
2023/04/02 10:50:58;;;;;;;1.17;0.93;;;19.70;56.80;;;;;;5018884;28;20041;-61
2023/04/02 10:53:38;;;;;;;1.52;1.10;;;19.70;56.90;;;;;;5013907;28;20044;-63
2023/04/02 10:56:10;;;;;;;1.20;1.00;;;19.70;56.80;;;;;;5021258;28;20080;-62
2023/04/02 10:58:46;;;;;;;1.52;1.17;;;19.70;56.80;;;;;;5011745;28;20046;-63
2023/04/02 11:01:22;;;;;;;1.65;1.00;;;19.70;56.80;;;;;;5015539;28;20040;-62
2023/04/02 11:03:58;;;;;;;1.45;1.27;;;19.60;56.90;;;;;;5026445;28;20340;-57
2023/04/02 11:06:42;;;;;;;1.10;1.00;;;19.60;56.70;;;;;;5037612;28;20690;-60
2023/04/02 11:09:17;;;;;;;1.17;1.08;;;19.60;56.70;;;;;;5037297;28;20060;-63
2023/04/02 11:11:45;;;;;;;1.50;1.40;;;19.50;56.70;;;;;;5036061;28;20413;-63
2023/04/02 11:14:25;;;;;;;1.10;0.80;;;19.50;56.60;;;;;;5025855;28;20116;-63
2023/04/02 11:16:52;;;;;;;1.30;1.20;;;19.50;56.80;;;;;;5020515;28;20029;-63
2023/04/02 11:19:17;;;;;;;1.30;1.15;;;19.50;56.80;;;;;;5022496;28;20536;-59
2023/04/02 11:22:12;;;;;;;1.75;1.30;;;19.50;56.80;;;;;;5030492;28;20111;-62
2023/04/02 11:24:49;;;;;;;1.52;1.23;;;19.50;56.80;;;;;;5033909;28;20132;-63
2023/04/02 11:27:32;;;;;;;1.50;1.10;;;19.40;56.70;;;;;;5032534;28;20030;-62
2023/04/02 11:30:24;;;;;;;1.55;1.23;;;19.50;56.80;;;;;;5037320;28;20491;-62
2023/04/02 11:32:50;;;;;;;1.75;1.30;;;19.50;56.70;;;;;;5039789;28;20037;-63
2023/04/02 11:35:30;;;;;;;1.05;0.90;;;19.40;56.70;;;;;;5034562;28;20153;-61
2023/04/02 11:38:22;;;;;;;2.30;1.13;;;19.40;56.70;;;;;;5037068;28;20037;-62
2023/04/02 11:40:55;;;;;;;1.23;1.05;;;19.40;56.60;;;;;;5035999;28;20449;-61
2023/04/02 11:43:33;;;;;;;1.73;1.30;;;19.40;56.60;;;;;;5036769;28;20056;-63
2023/04/02 11:46:27;;;;;;;1.48;1.25;;;19.40;56.60;;;;;;5028100;28;20033;-63
2023/04/02 11:48:54;;;;;;;1.85;1.17;;;19.40;56.60;;;;;;5013603;28;20030;-58
2023/04/02 11:51:19;;;;;;;2.10;1.10;;;19.40;56.60;;;;;;5010433;28;20518;-59
2023/04/02 11:53:45;;;;;;;2.40;1.05;;;19.40;56.60;;;;;;5012791;28;20034;-58
2023/04/02 11:56:26;;;;;;;1.48;1.20;;;19.40;56.60;;;;;;5011408;28;20030;-62
2023/04/02 11:59:19;;;;;;;1.40;1.30;;;19.40;56.50;;;;;;5038354;28;20037;-61
2023/04/02 12:01:57;;;;;;;1.40;1.20;;;19.30;56.70;;;;;;5036350;28;20032;-62
2023/04/02 12:04:36;;;;;;;1.45;1.33;;;19.30;56.50;;;;;;5036560;28;20108;-59
2023/04/02 12:07:45;;;;;;;2.50;1.40;;;19.30;57.20;;;;;;5036228;28;20392;-63
2023/04/02 12:10:31;;;;;;;2.28;1.25;;;19.30;56.70;;;;;;5034949;28;20037;-63
2023/04/02 12:12:56;;;;;;;;;;;19.30;56.60;;;;;;5038788;28;20029;-63
2023/04/02 12:15:25;;;;;;;1.50;1.00;;;19.30;56.70;;;;;;5038953;28;19913;-56
2023/04/02 12:17:51;;;;;;;1.60;1.17;;;19.30;56.70;;;;;;5035095;28;20036;-63
2023/04/02 12:20:20;;;;;;;1.20;1.10;;;19.30;56.60;;;;;;5014664;28;20038;-63
2023/04/02 12:22:52;;;;;;;1.77;1.40;;;19.20;56.60;;;;;;5013551;28;20574;-57
2023/04/02 12:25:38;;;;;;;1.70;1.20;;;19.20;56.60;;;;;;5015985;28;20054;-62
2023/04/02 12:28:16;;;;;;;1.70;1.00;;;19.20;56.60;;;;;;5013977;28;20052;-58
2023/04/02 12:30:43;;;;;;;0.82;0.82;;;19.30;56.70;;;;;;5016165;28;20400;-62
2023/04/02 12:33:36;;;;;;;1.20;1.10;;;19.20;56.60;;;;;;5017778;28;20143;-62
2023/04/02 12:36:05;;;;;;;1.00;0.88;;;19.20;56.60;;;;;;5014331;28;20156;-63
2023/04/02 12:38:38;;;;;;;1.50;1.15;;;19.20;56.60;;;;;;5012648;28;20440;-62
2023/04/02 12:41:16;;;;;;;1.40;1.08;;;19.20;56.60;;;;;;5014988;28;20121;-63
2023/04/02 12:43:42;;;;;;;0.80;0.80;;;19.20;56.60;;;;;;5014739;28;20121;-62
2023/04/02 12:46:08;;;;;;;1.52;1.08;;;19.20;56.50;;;;;;5012183;28;20160;-63
2023/04/02 12:48:34;;;;;;;1.85;1.40;;;19.20;56.60;;;;;;5015870;28;20087;-63
2023/04/02 12:51:01;;;;;;;1.50;1.27;;;19.20;56.60;;;;;;5009932;28;20241;-60
2023/04/02 12:53:33;;;;;;;1.00;0.90;;;19.20;57.20;;;;;;5019099;28;20026;-61
2023/04/02 12:55:59;;;;;;;1.92;0.85;;;19.20;56.60;;;;;;5013857;28;20044;-63
2023/04/02 12:58:39;;;;;;;1.30;1.10;;;19.20;56.50;;;;;;5007757;28;20038;-63
2023/04/02 13:01:14;;;;;;;1.13;1.02;;;19.10;56.60;;;;;;5029125;28;20029;-62
2023/04/02 13:03:40;;;;;;;1.50;1.00;;;19.10;56.60;;;;;;5037088;28;20537;-62
2023/04/02 13:06:23;;;;;;;1.20;1.10;;;19.20;56.50;;;;;;5036068;28;20033;-63
2023/04/02 13:08:48;;;;;;;0.88;0.80;;;19.10;56.50;;;;;;5034433;28;20056;-54
2023/04/02 13:11:14;;;;;;;1.20;0.80;;;19.10;56.50;;;;;;5034397;28;20471;-62
2023/04/02 13:13:42;;;;;;;1.25;1.08;;;19.10;56.50;;;;;;5033201;28;20033;-62
2023/04/02 13:16:14;;;;;;;3.10;1.27;;;19.10;56.50;;;;;;5011924;28;20084;-63
2023/04/02 13:18:40;;;;;;;1.20;0.90;;;19.10;56.40;;;;;;5013586;28;20137;-60
2023/04/02 13:21:26;;;;;;;2.00;1.10;;;19.10;57.00;;;;;;5011821;28;20049;-62
2023/04/02 13:23:51;;;;;;;1.40;1.20;;;19.10;56.40;;;;;;5013158;28;20706;-63
2023/04/02 13:26:18;;;;;;;1.15;0.85;;;19.10;56.40;;;;;;5018601;28;20136;-56
2023/04/02 13:28:59;;;;;;;1.08;1.00;;;19.10;56.50;;;;;;5015847;28;20059;-62